sensor_id;sensor_type;location;lat;lon;timestamp;P1;durP1;ratioP1;P2;durP2;ratioP2
74108;SDS011;62466;47.566;7.786;2023-03-15T00:00:04;2.75;;;2.30;;
74108;SDS011;62466;47.566;7.786;2023-03-15T00:02:31;3.33;;;2.22;;
74108;SDS011;62466;47.566;7.786;2023-03-15T00:04:57;2.50;;;2.40;;
74108;SDS011;62466;47.566;7.786;2023-03-15T00:07:23;2.45;;;2.17;;
74108;SDS011;62466;47.566;7.786;2023-03-15T00:09:53;2.70;;;2.50;;
74108;SDS011;62466;47.566;7.786;2023-03-15T00:12:19;2.63;;;2.47;;
74108;SDS011;62466;47.566;7.786;2023-03-15T00:14:47;2.35;;;2.22;;
74108;SDS011;62466;47.566;7.786;2023-03-15T00:17:13;2.30;;;2.20;;
74108;SDS011;62466;47.566;7.786;2023-03-15T00:19:38;2.72;;;2.30;;
74108;SDS011;62466;47.566;7.786;2023-03-15T00:22:04;2.63;;;2.42;;
74108;SDS011;62466;47.566;7.786;2023-03-15T00:24:29;3.10;;;2.50;;
74108;SDS011;62466;47.566;7.786;2023-03-15T00:26:55;3.25;;;2.95;;
74108;SDS011;62466;47.566;7.786;2023-03-15T00:29:20;3.97;;;2.40;;
74108;SDS011;62466;47.566;7.786;2023-03-15T00:31:46;3.47;;;2.13;;
74108;SDS011;62466;47.566;7.786;2023-03-15T00:34:11;3.35;;;2.17;;
74108;SDS011;62466;47.566;7.786;2023-03-15T00:36:38;4.45;;;2.75;;
74108;SDS011;62466;47.566;7.786;2023-03-15T00:39:08;2.55;;;2.38;;
74108;SDS011;62466;47.566;7.786;2023-03-15T00:41:33;3.10;;;2.90;;
74108;SDS011;62466;47.566;7.786;2023-03-15T00:43:59;3.05;;;2.60;;
74108;SDS011;62466;47.566;7.786;2023-03-15T00:46:25;3.28;;;2.70;;
74108;SDS011;62466;47.566;7.786;2023-03-15T00:48:51;2.50;;;2.30;;
74108;SDS011;62466;47.566;7.786;2023-03-15T00:51:21;2.83;;;2.25;;
74108;SDS011;62466;47.566;7.786;2023-03-15T00:53:48;2.60;;;2.22;;
74108;SDS011;62466;47.566;7.786;2023-03-15T00:56:19;3.10;;;2.90;;
74108;SDS011;62466;47.566;7.786;2023-03-15T00:58:46;2.70;;;2.60;;
74108;SDS011;62466;47.566;7.786;2023-03-15T01:01:22;2.72;;;2.53;;
74108;SDS011;62466;47.566;7.786;2023-03-15T01:03:50;2.70;;;2.42;;
74108;SDS011;62466;47.566;7.786;2023-03-15T01:06:23;3.30;;;3.00;;
74108;SDS011;62466;47.566;7.786;2023-03-15T01:08:50;2.42;;;2.33;;
74108;SDS011;62466;47.566;7.786;2023-03-15T01:11:17;3.38;;;2.75;;
74108;SDS011;62466;47.566;7.786;2023-03-15T01:13:44;2.55;;;2.22;;
74108;SDS011;62466;47.566;7.786;2023-03-15T01:16:10;2.95;;;2.75;;
74108;SDS011;62466;47.566;7.786;2023-03-15T01:18:37;2.55;;;2.35;;
74108;SDS011;62466;47.566;7.786;2023-03-15T01:21:06;3.15;;;2.85;;
74108;SDS011;62466;47.566;7.786;2023-03-15T01:23:32;2.85;;;2.72;;
74108;SDS011;62466;47.566;7.786;2023-03-15T01:25:59;2.80;;;2.60;;
74108;SDS011;62466;47.566;7.786;2023-03-15T01:28:25;2.88;;;2.78;;
74108;SDS011;62466;47.566;7.786;2023-03-15T01:30:51;3.63;;;3.00;;
74108;SDS011;62466;47.566;7.786;2023-03-15T01:33:17;2.85;;;2.65;;
74108;SDS011;62466;47.566;7.786;2023-03-15T01:35:43;3.17;;;2.75;;
74108;SDS011;62466;47.566;7.786;2023-03-15T01:38:08;2.78;;;2.58;;
74108;SDS011;62466;47.566;7.786;2023-03-15T01:40:38;3.30;;;2.70;;
74108;SDS011;62466;47.566;7.786;2023-03-15T01:43:18;2.88;;;2.67;;
74108;SDS011;62466;47.566;7.786;2023-03-15T01:45:52;4.30;;;2.88;;
74108;SDS011;62466;47.566;7.786;2023-03-15T01:51:43;3.10;;;2.90;;
74108;SDS011;62466;47.566;7.786;2023-03-15T01:54:15;4.00;;;3.28;;
74108;SDS011;62466;47.566;7.786;2023-03-15T01:56:46;3.00;;;2.83;;
74108;SDS011;62466;47.566;7.786;2023-03-15T01:59:23;3.63;;;3.25;;
74108;SDS011;62466;47.566;7.786;2023-03-15T02:01:52;3.08;;;2.78;;
74108;SDS011;62466;47.566;7.786;2023-03-15T02:04:21;7.05;;;2.85;;
74108;SDS011;62466;47.566;7.786;2023-03-15T02:09:24;4.13;;;2.47;;
74108;SDS011;62466;47.566;7.786;2023-03-15T02:11:54;3.28;;;2.47;;
74108;SDS011;62466;47.566;7.786;2023-03-15T02:14:20;3.08;;;2.88;;
74108;SDS011;62466;47.566;7.786;2023-03-15T02:16:47;5.95;;;3.05;;
74108;SDS011;62466;47.566;7.786;2023-03-15T02:19:35;3.22;;;2.70;;
74108;SDS011;62466;47.566;7.786;2023-03-15T02:25:02;4.63;;;2.92;;
74108;SDS011;62466;47.566;7.786;2023-03-15T02:27:33;3.72;;;3.42;;
74108;SDS011;62466;47.566;7.786;2023-03-15T02:30:00;3.97;;;3.22;;
74108;SDS011;62466;47.566;7.786;2023-03-15T02:32:27;5.30;;;3.47;;
74108;SDS011;62466;47.566;7.786;2023-03-15T02:34:55;3.63;;;3.42;;
74108;SDS011;62466;47.566;7.786;2023-03-15T02:37:20;3.42;;;3.13;;
74108;SDS011;62466;47.566;7.786;2023-03-15T02:39:46;3.10;;;2.90;;
74108;SDS011;62466;47.566;7.786;2023-03-15T02:42:11;3.47;;;3.22;;
74108;SDS011;62466;47.566;7.786;2023-03-15T02:44:38;3.10;;;2.80;;
74108;SDS011;62466;47.566;7.786;2023-03-15T02:47:07;3.60;;;2.42;;
74108;SDS011;62466;47.566;7.786;2023-03-15T02:49:39;3.25;;;2.72;;
74108;SDS011;62466;47.566;7.786;2023-03-15T02:52:07;3.38;;;3.08;;
74108;SDS011;62466;47.566;7.786;2023-03-15T02:54:33;3.28;;;3.00;;
74108;SDS011;62466;47.566;7.786;2023-03-15T02:56:59;2.67;;;2.58;;
74108;SDS011;62466;47.566;7.786;2023-03-15T02:59:26;2.70;;;2.60;;
74108;SDS011;62466;47.566;7.786;2023-03-15T03:01:52;2.85;;;2.63;;
74108;SDS011;62466;47.566;7.786;2023-03-15T03:04:18;2.90;;;2.80;;
74108;SDS011;62466;47.566;7.786;2023-03-15T03:06:43;3.30;;;3.10;;
74108;SDS011;62466;47.566;7.786;2023-03-15T03:09:10;3.40;;;3.10;;
74108;SDS011;62466;47.566;7.786;2023-03-15T03:11:36;3.95;;;3.17;;
74108;SDS011;62466;47.566;7.786;2023-03-15T03:14:02;3.13;;;2.90;;
74108;SDS011;62466;47.566;7.786;2023-03-15T03:16:28;2.95;;;2.80;;
74108;SDS011;62466;47.566;7.786;2023-03-15T03:18:54;3.17;;;2.97;;
74108;SDS011;62466;47.566;7.786;2023-03-15T03:21:19;2.83;;;2.63;;
74108;SDS011;62466;47.566;7.786;2023-03-15T03:23:45;3.53;;;3.33;;
74108;SDS011;62466;47.566;7.786;2023-03-15T03:26:15;3.53;;;2.90;;
74108;SDS011;62466;47.566;7.786;2023-03-15T03:28:44;3.60;;;3.30;;
74108;SDS011;62466;47.566;7.786;2023-03-15T03:31:15;3.60;;;3.35;;
74108;SDS011;62466;47.566;7.786;2023-03-15T03:33:41;3.38;;;3.13;;
74108;SDS011;62466;47.566;7.786;2023-03-15T03:36:07;3.42;;;3.13;;
74108;SDS011;62466;47.566;7.786;2023-03-15T03:38:32;3.00;;;2.90;;
74108;SDS011;62466;47.566;7.786;2023-03-15T03:41:00;2.88;;;2.60;;
74108;SDS011;62466;47.566;7.786;2023-03-15T03:43:27;3.40;;;3.10;;
74108;SDS011;62466;47.566;7.786;2023-03-15T03:45:53;3.22;;;2.90;;
74108;SDS011;62466;47.566;7.786;2023-03-15T03:48:18;3.45;;;3.15;;
74108;SDS011;62466;47.566;7.786;2023-03-15T03:50:44;3.50;;;3.20;;
74108;SDS011;62466;47.566;7.786;2023-03-15T03:53:09;3.70;;;3.15;;
74108;SDS011;62466;47.566;7.786;2023-03-15T03:55:36;4.53;;;3.45;;
74108;SDS011;62466;47.566;7.786;2023-03-15T03:58:02;3.85;;;3.42;;
74108;SDS011;62466;47.566;7.786;2023-03-15T04:00:41;4.00;;;3.70;;
74108;SDS011;62466;47.566;7.786;2023-03-15T04:03:08;5.05;;;4.30;;
74108;SDS011;62466;47.566;7.786;2023-03-15T04:05:36;4.35;;;3.95;;
74108;SDS011;62466;47.566;7.786;2023-03-15T04:08:01;6.10;;;3.70;;
74108;SDS011;62466;47.566;7.786;2023-03-15T04:10:32;3.88;;;3.58;;
74108;SDS011;62466;47.566;7.786;2023-03-15T04:12:59;4.18;;;3.28;;
74108;SDS011;62466;47.566;7.786;2023-03-15T04:15:25;3.90;;;3.30;;
74108;SDS011;62466;47.566;7.786;2023-03-15T04:17:50;4.82;;;3.72;;
74108;SDS011;62466;47.566;7.786;2023-03-15T04:20:26;3.80;;;3.47;;
74108;SDS011;62466;47.566;7.786;2023-03-15T04:22:52;5.30;;;3.92;;
74108;SDS011;62466;47.566;7.786;2023-03-15T04:25:30;4.65;;;3.80;;
74108;SDS011;62466;47.566;7.786;2023-03-15T04:28:09;4.22;;;3.72;;
74108;SDS011;62466;47.566;7.786;2023-03-15T04:30:53;6.00;;;3.80;;
74108;SDS011;62466;47.566;7.786;2023-03-15T04:33:28;4.90;;;3.80;;
74108;SDS011;62466;47.566;7.786;2023-03-15T04:36:01;5.10;;;3.97;;
74108;SDS011;62466;47.566;7.786;2023-03-15T04:38:42;4.28;;;3.55;;
74108;SDS011;62466;47.566;7.786;2023-03-15T04:41:35;5.55;;;3.42;;
74108;SDS011;62466;47.566;7.786;2023-03-15T04:44:09;4.20;;;3.80;;
74108;SDS011;62466;47.566;7.786;2023-03-15T04:46:47;4.18;;;3.63;;
74108;SDS011;62466;47.566;7.786;2023-03-15T04:49:32;4.68;;;4.25;;
74108;SDS011;62466;47.566;7.786;2023-03-15T04:52:16;4.13;;;3.42;;
74108;SDS011;62466;47.566;7.786;2023-03-15T04:54:50;4.18;;;3.67;;
74108;SDS011;62466;47.566;7.786;2023-03-15T05:00:17;4.18;;;3.63;;
74108;SDS011;62466;47.566;7.786;2023-03-15T05:03:01;5.03;;;3.88;;
74108;SDS011;62466;47.566;7.786;2023-03-15T05:05:46;3.70;;;3.47;;
74108;SDS011;62466;47.566;7.786;2023-03-15T05:08:34;3.78;;;3.47;;
74108;SDS011;62466;47.566;7.786;2023-03-15T05:11:23;4.15;;;3.78;;
74108;SDS011;62466;47.566;7.786;2023-03-15T05:14:04;3.70;;;3.40;;
74108;SDS011;62466;47.566;7.786;2023-03-15T05:16:45;4.72;;;3.63;;
74108;SDS011;62466;47.566;7.786;2023-03-15T05:19:35;5.97;;;4.38;;
74108;SDS011;62466;47.566;7.786;2023-03-15T05:22:19;4.30;;;4.00;;
74108;SDS011;62466;47.566;7.786;2023-03-15T05:25:22;5.85;;;4.32;;
74108;SDS011;62466;47.566;7.786;2023-03-15T05:28:07;4.47;;;3.58;;
74108;SDS011;62466;47.566;7.786;2023-03-15T05:30:53;4.68;;;3.42;;
74108;SDS011;62466;47.566;7.786;2023-03-15T05:33:29;5.13;;;4.63;;
74108;SDS011;62466;47.566;7.786;2023-03-15T05:36:19;6.22;;;4.80;;
74108;SDS011;62466;47.566;7.786;2023-03-15T05:39:04;6.10;;;4.75;;
74108;SDS011;62466;47.566;7.786;2023-03-15T05:42:01;4.80;;;4.32;;
74108;SDS011;62466;47.566;7.786;2023-03-15T05:44:39;12.40;;;5.35;;
74108;SDS011;62466;47.566;7.786;2023-03-15T05:47:23;14.38;;;6.43;;
74108;SDS011;62466;47.566;7.786;2023-03-15T05:50:07;19.08;;;7.25;;
74108;SDS011;62466;47.566;7.786;2023-03-15T05:52:56;15.13;;;7.60;;
74108;SDS011;62466;47.566;7.786;2023-03-15T05:55:44;10.25;;;5.25;;
74108;SDS011;62466;47.566;7.786;2023-03-15T05:58:12;11.45;;;4.45;;
74108;SDS011;62466;47.566;7.786;2023-03-15T06:00:50;7.72;;;3.90;;
74108;SDS011;62466;47.566;7.786;2023-03-15T06:03:35;5.25;;;4.60;;
74108;SDS011;62466;47.566;7.786;2023-03-15T06:06:09;4.65;;;3.78;;
74108;SDS011;62466;47.566;7.786;2023-03-15T06:08:38;5.80;;;4.47;;
74108;SDS011;62466;47.566;7.786;2023-03-15T06:11:04;5.68;;;4.25;;
74108;SDS011;62466;47.566;7.786;2023-03-15T06:13:30;4.75;;;4.25;;
74108;SDS011;62466;47.566;7.786;2023-03-15T06:15:57;5.57;;;4.25;;
74108;SDS011;62466;47.566;7.786;2023-03-15T06:18:23;5.97;;;4.93;;
74108;SDS011;62466;47.566;7.786;2023-03-15T06:20:49;5.38;;;4.88;;
74108;SDS011;62466;47.566;7.786;2023-03-15T06:23:16;5.35;;;4.70;;
74108;SDS011;62466;47.566;7.786;2023-03-15T06:25:44;5.35;;;4.88;;
74108;SDS011;62466;47.566;7.786;2023-03-15T06:28:10;6.38;;;4.82;;
74108;SDS011;62466;47.566;7.786;2023-03-15T06:30:39;7.10;;;5.78;;
74108;SDS011;62466;47.566;7.786;2023-03-15T06:33:05;6.63;;;4.68;;
74108;SDS011;62466;47.566;7.786;2023-03-15T06:35:31;5.93;;;4.88;;
74108;SDS011;62466;47.566;7.786;2023-03-15T06:37:57;5.63;;;5.10;;
74108;SDS011;62466;47.566;7.786;2023-03-15T06:40:22;5.32;;;4.82;;
74108;SDS011;62466;47.566;7.786;2023-03-15T06:42:48;5.65;;;5.15;;
74108;SDS011;62466;47.566;7.786;2023-03-15T06:45:16;5.80;;;5.20;;
74108;SDS011;62466;47.566;7.786;2023-03-15T06:47:43;6.05;;;4.80;;
74108;SDS011;62466;47.566;7.786;2023-03-15T06:50:09;5.03;;;4.57;;
74108;SDS011;62466;47.566;7.786;2023-03-15T06:52:35;6.13;;;5.28;;
74108;SDS011;62466;47.566;7.786;2023-03-15T06:55:00;5.75;;;5.25;;
74108;SDS011;62466;47.566;7.786;2023-03-15T06:57:26;5.95;;;5.38;;
74108;SDS011;62466;47.566;7.786;2023-03-15T06:59:52;8.43;;;5.10;;
74108;SDS011;62466;47.566;7.786;2023-03-15T07:02:18;5.97;;;4.75;;
74108;SDS011;62466;47.566;7.786;2023-03-15T07:04:43;5.00;;;4.50;;
74108;SDS011;62466;47.566;7.786;2023-03-15T07:07:09;5.65;;;5.15;;
74108;SDS011;62466;47.566;7.786;2023-03-15T07:09:36;6.05;;;5.47;;
74108;SDS011;62466;47.566;7.786;2023-03-15T07:12:02;5.82;;;4.55;;
74108;SDS011;62466;47.566;7.786;2023-03-15T07:14:27;7.18;;;4.70;;
74108;SDS011;62466;47.566;7.786;2023-03-15T07:16:52;6.10;;;4.35;;
74108;SDS011;62466;47.566;7.786;2023-03-15T07:19:18;8.65;;;5.20;;
74108;SDS011;62466;47.566;7.786;2023-03-15T07:21:43;6.68;;;4.20;;
74108;SDS011;62466;47.566;7.786;2023-03-15T07:24:12;4.30;;;3.70;;
74108;SDS011;62466;47.566;7.786;2023-03-15T07:26:38;9.50;;;4.50;;
74108;SDS011;62466;47.566;7.786;2023-03-15T07:29:03;4.43;;;4.00;;
74108;SDS011;62466;47.566;7.786;2023-03-15T07:31:29;4.32;;;3.60;;
74108;SDS011;62466;47.566;7.786;2023-03-15T07:33:54;6.50;;;3.72;;
74108;SDS011;62466;47.566;7.786;2023-03-15T07:36:19;7.20;;;4.40;;
74108;SDS011;62466;47.566;7.786;2023-03-15T07:38:46;4.03;;;3.60;;
74108;SDS011;62466;47.566;7.786;2023-03-15T07:41:15;4.22;;;3.83;;
74108;SDS011;62466;47.566;7.786;2023-03-15T07:43:52;5.10;;;4.13;;
74108;SDS011;62466;47.566;7.786;2023-03-15T07:46:17;6.07;;;3.60;;
74108;SDS011;62466;47.566;7.786;2023-03-15T07:48:43;6.00;;;4.95;;
74108;SDS011;62466;47.566;7.786;2023-03-15T07:51:08;9.10;;;4.55;;
74108;SDS011;62466;47.566;7.786;2023-03-15T07:53:33;6.82;;;4.57;;
74108;SDS011;62466;47.566;7.786;2023-03-15T07:55:59;5.68;;;4.65;;
74108;SDS011;62466;47.566;7.786;2023-03-15T07:58:28;10.43;;;4.82;;
74108;SDS011;62466;47.566;7.786;2023-03-15T08:00:56;8.02;;;5.07;;
74108;SDS011;62466;47.566;7.786;2023-03-15T08:03:22;10.20;;;4.70;;
74108;SDS011;62466;47.566;7.786;2023-03-15T08:05:48;6.53;;;4.88;;
74108;SDS011;62466;47.566;7.786;2023-03-15T08:08:14;8.48;;;3.85;;
74108;SDS011;62466;47.566;7.786;2023-03-15T08:10:40;8.77;;;4.38;;
74108;SDS011;62466;47.566;7.786;2023-03-15T08:13:07;5.95;;;3.60;;
74108;SDS011;62466;47.566;7.786;2023-03-15T08:15:32;4.13;;;3.50;;
74108;SDS011;62466;47.566;7.786;2023-03-15T08:17:58;5.18;;;3.97;;
74108;SDS011;62466;47.566;7.786;2023-03-15T08:20:24;4.70;;;3.30;;
74108;SDS011;62466;47.566;7.786;2023-03-15T08:22:50;5.28;;;3.35;;
74108;SDS011;62466;47.566;7.786;2023-03-15T08:25:17;3.60;;;2.65;;
74108;SDS011;62466;47.566;7.786;2023-03-15T08:27:44;5.55;;;2.75;;
74108;SDS011;62466;47.566;7.786;2023-03-15T08:30:10;2.80;;;2.50;;
74108;SDS011;62466;47.566;7.786;2023-03-15T08:32:37;3.70;;;2.80;;
74108;SDS011;62466;47.566;7.786;2023-03-15T08:35:06;2.92;;;2.10;;
74108;SDS011;62466;47.566;7.786;2023-03-15T08:37:32;3.72;;;2.20;;
74108;SDS011;62466;47.566;7.786;2023-03-15T08:39:58;1.85;;;1.60;;
74108;SDS011;62466;47.566;7.786;2023-03-15T08:42:32;1.88;;;1.65;;
74108;SDS011;62466;47.566;7.786;2023-03-15T08:44:57;3.08;;;1.88;;
74108;SDS011;62466;47.566;7.786;2023-03-15T08:47:26;3.47;;;2.40;;
74108;SDS011;62466;47.566;7.786;2023-03-15T08:49:51;3.50;;;1.75;;
74108;SDS011;62466;47.566;7.786;2023-03-15T08:52:17;4.10;;;1.73;;
74108;SDS011;62466;47.566;7.786;2023-03-15T08:54:44;2.30;;;1.67;;
74108;SDS011;62466;47.566;7.786;2023-03-15T08:57:09;5.05;;;1.83;;
74108;SDS011;62466;47.566;7.786;2023-03-15T08:59:36;1.90;;;1.77;;
74108;SDS011;62466;47.566;7.786;2023-03-15T09:02:02;1.70;;;1.60;;
74108;SDS011;62466;47.566;7.786;2023-03-15T09:04:28;1.70;;;1.40;;
74108;SDS011;62466;47.566;7.786;2023-03-15T09:06:54;0.93;;;0.93;;
74108;SDS011;62466;47.566;7.786;2023-03-15T09:09:19;1.20;;;1.10;;
74108;SDS011;62466;47.566;7.786;2023-03-15T09:11:45;1.30;;;1.20;;
74108;SDS011;62466;47.566;7.786;2023-03-15T09:14:10;4.60;;;1.80;;
74108;SDS011;62466;47.566;7.786;2023-03-15T09:16:36;1.20;;;1.20;;
74108;SDS011;62466;47.566;7.786;2023-03-15T09:19:01;1.95;;;1.35;;
74108;SDS011;62466;47.566;7.786;2023-03-15T09:21:27;2.80;;;1.60;;
74108;SDS011;62466;47.566;7.786;2023-03-15T09:23:52;6.43;;;1.50;;
74108;SDS011;62466;47.566;7.786;2023-03-15T09:26:18;1.35;;;1.30;;
74108;SDS011;62466;47.566;7.786;2023-03-15T09:28:43;2.13;;;1.30;;
74108;SDS011;62466;47.566;7.786;2023-03-15T09:31:09;1.50;;;1.30;;
74108;SDS011;62466;47.566;7.786;2023-03-15T09:33:35;2.70;;;1.20;;
74108;SDS011;62466;47.566;7.786;2023-03-15T09:36:01;2.67;;;1.00;;
74108;SDS011;62466;47.566;7.786;2023-03-15T09:38:26;1.73;;;1.33;;
74108;SDS011;62466;47.566;7.786;2023-03-15T09:40:55;1.60;;;1.27;;
74108;SDS011;62466;47.566;7.786;2023-03-15T09:59:31;1.35;;;0.90;;
74108;SDS011;62466;47.566;7.786;2023-03-15T10:01:58;0.80;;;0.80;;
74108;SDS011;62466;47.566;7.786;2023-03-15T10:04:30;2.65;;;1.08;;
74108;SDS011;62466;47.566;7.786;2023-03-15T10:07:01;3.22;;;1.10;;
74108;SDS011;62466;47.566;7.786;2023-03-15T10:09:29;1.63;;;0.77;;
74108;SDS011;62466;47.566;7.786;2023-03-15T10:17:30;0.70;;;0.70;;
74108;SDS011;62466;47.566;7.786;2023-03-15T10:20:05;1.02;;;0.90;;
74108;SDS011;62466;47.566;7.786;2023-03-15T10:22:39;0.77;;;0.77;;
74108;SDS011;62466;47.566;7.786;2023-03-15T10:25:17;0.65;;;0.50;;
74108;SDS011;62466;47.566;7.786;2023-03-15T10:28:00;0.60;;;0.60;;
74108;SDS011;62466;47.566;7.786;2023-03-15T10:30:31;1.88;;;1.33;;
74108;SDS011;62466;47.566;7.786;2023-03-15T10:32:59;1.20;;;0.70;;
74108;SDS011;62466;47.566;7.786;2023-03-15T10:35:27;0.70;;;0.70;;
74108;SDS011;62466;47.566;7.786;2023-03-15T10:37:53;1.20;;;0.60;;
74108;SDS011;62466;47.566;7.786;2023-03-15T10:43:11;0.75;;;0.60;;
74108;SDS011;62466;47.566;7.786;2023-03-15T10:45:38;1.55;;;0.50;;
74108;SDS011;62466;47.566;7.786;2023-03-15T10:48:04;0.82;;;0.65;;
74108;SDS011;62466;47.566;7.786;2023-03-15T10:50:30;1.80;;;0.88;;
74108;SDS011;62466;47.566;7.786;2023-03-15T10:52:57;2.17;;;0.70;;
74108;SDS011;62466;47.566;7.786;2023-03-15T10:55:31;1.60;;;0.70;;
74108;SDS011;62466;47.566;7.786;2023-03-15T10:57:59;1.23;;;0.70;;
74108;SDS011;62466;47.566;7.786;2023-03-15T11:00:48;1.17;;;0.70;;
74108;SDS011;62466;47.566;7.786;2023-03-15T11:03:16;1.33;;;0.70;;
74108;SDS011;62466;47.566;7.786;2023-03-15T11:05:46;1.00;;;0.60;;
74108;SDS011;62466;47.566;7.786;2023-03-15T11:08:17;0.63;;;0.50;;
74108;SDS011;62466;47.566;7.786;2023-03-15T11:10:55;0.95;;;0.68;;
74108;SDS011;62466;47.566;7.786;2023-03-15T11:13:22;1.55;;;0.50;;
74108;SDS011;62466;47.566;7.786;2023-03-15T11:15:54;0.60;;;0.60;;
74108;SDS011;62466;47.566;7.786;2023-03-15T11:18:25;2.15;;;0.70;;
74108;SDS011;62466;47.566;7.786;2023-03-15T11:20:53;2.42;;;0.50;;
74108;SDS011;62466;47.566;7.786;2023-03-15T11:23:21;1.70;;;0.50;;
74108;SDS011;62466;47.566;7.786;2023-03-15T11:25:49;0.40;;;0.40;;
74108;SDS011;62466;47.566;7.786;2023-03-15T11:28:16;0.30;;;0.30;;
74108;SDS011;62466;47.566;7.786;2023-03-15T11:30:44;0.30;;;0.30;;
74108;SDS011;62466;47.566;7.786;2023-03-15T11:33:13;2.95;;;0.40;;
74108;SDS011;62466;47.566;7.786;2023-03-15T11:36:04;0.30;;;0.28;;
74108;SDS011;62466;47.566;7.786;2023-03-15T11:38:36;0.38;;;0.25;;
74108;SDS011;62466;47.566;7.786;2023-03-15T11:41:06;0.43;;;0.30;;
74108;SDS011;62466;47.566;7.786;2023-03-15T11:43:41;0.80;;;0.43;;
74108;SDS011;62466;47.566;7.786;2023-03-15T11:46:27;0.30;;;0.28;;
74108;SDS011;62466;47.566;7.786;2023-03-15T11:48:58;0.68;;;0.30;;
74108;SDS011;62466;47.566;7.786;2023-03-15T11:51:25;0.60;;;0.30;;
74108;SDS011;62466;47.566;7.786;2023-03-15T11:56:49;0.40;;;0.40;;
74108;SDS011;62466;47.566;7.786;2023-03-15T12:01:49;0.30;;;0.30;;
74108;SDS011;62466;47.566;7.786;2023-03-15T12:06:49;0.30;;;0.30;;
74108;SDS011;62466;47.566;7.786;2023-03-15T12:14:29;0.85;;;0.40;;
74108;SDS011;62466;47.566;7.786;2023-03-15T12:23:27;0.75;;;0.38;;
74108;SDS011;62466;47.566;7.786;2023-03-15T12:25:37;0.10;;;0.10;;
74108;SDS011;62466;47.566;7.786;2023-03-15T12:28:04;1.00;;;0.30;;
74108;SDS011;62466;47.566;7.786;2023-03-15T12:30:42;0.35;;;0.20;;
74108;SDS011;62466;47.566;7.786;2023-03-15T12:33:15;1.65;;;0.30;;
74108;SDS011;62466;47.566;7.786;2023-03-15T12:35:42;0.60;;;0.28;;
74108;SDS011;62466;47.566;7.786;2023-03-15T12:38:10;1.08;;;0.50;;
74108;SDS011;62466;47.566;7.786;2023-03-15T12:40:38;0.65;;;0.22;;
74108;SDS011;62466;47.566;7.786;2023-03-15T12:43:04;1.02;;;0.20;;
74108;SDS011;62466;47.566;7.786;2023-03-15T12:45:34;1.48;;;0.50;;
74108;SDS011;62466;47.566;7.786;2023-03-15T12:55:52;0.63;;;0.15;;
74108;SDS011;62466;47.566;7.786;2023-03-15T12:58:18;2.63;;;0.20;;
74108;SDS011;62466;47.566;7.786;2023-03-15T13:00:44;0.35;;;0.20;;
74108;SDS011;62466;47.566;7.786;2023-03-15T13:03:11;0.10;;;0.10;;
74108;SDS011;62466;47.566;7.786;2023-03-15T13:06:02;0.10;;;0.10;;
74108;SDS011;62466;47.566;7.786;2023-03-15T13:08:35;0.60;;;0.40;;
74108;SDS011;62466;47.566;7.786;2023-03-15T13:11:23;0.40;;;0.40;;
74108;SDS011;62466;47.566;7.786;2023-03-15T13:16:45;1.00;;;0.30;;
74108;SDS011;62466;47.566;7.786;2023-03-15T13:19:18;0.40;;;0.40;;
74108;SDS011;62466;47.566;7.786;2023-03-15T13:27:14;0.30;;;0.30;;
74108;SDS011;62466;47.566;7.786;2023-03-15T13:29:52;0.82;;;0.50;;
74108;SDS011;62466;47.566;7.786;2023-03-15T13:32:18;0.40;;;0.30;;
74108;SDS011;62466;47.566;7.786;2023-03-15T13:34:46;1.63;;;0.55;;
74108;SDS011;62466;47.566;7.786;2023-03-15T13:37:24;0.82;;;0.40;;
74108;SDS011;62466;47.566;7.786;2023-03-15T13:39:51;1.05;;;0.40;;
74108;SDS011;62466;47.566;7.786;2023-03-15T13:42:22;0.47;;;0.30;;
74108;SDS011;62466;47.566;7.786;2023-03-15T13:47:47;1.25;;;0.40;;
74108;SDS011;62466;47.566;7.786;2023-03-15T13:50:17;0.20;;;0.20;;
74108;SDS011;62466;47.566;7.786;2023-03-15T13:52:44;1.45;;;0.40;;
74108;SDS011;62466;47.566;7.786;2023-03-15T13:55:19;0.77;;;0.50;;
74108;SDS011;62466;47.566;7.786;2023-03-15T13:57:48;0.73;;;0.40;;
74108;SDS011;62466;47.566;7.786;2023-03-15T14:00:16;0.35;;;0.30;;
74108;SDS011;62466;47.566;7.786;2023-03-15T14:02:53;0.60;;;0.30;;
74108;SDS011;62466;47.566;7.786;2023-03-15T14:05:24;0.43;;;0.40;;
74108;SDS011;62466;47.566;7.786;2023-03-15T14:08:13;0.95;;;0.50;;
74108;SDS011;62466;47.566;7.786;2023-03-15T14:10:43;0.68;;;0.50;;
74108;SDS011;62466;47.566;7.786;2023-03-15T14:16:06;0.63;;;0.32;;
74108;SDS011;62466;47.566;7.786;2023-03-15T14:18:37;0.30;;;0.30;;
74108;SDS011;62466;47.566;7.786;2023-03-15T14:21:12;0.47;;;0.40;;
74108;SDS011;62466;47.566;7.786;2023-03-15T14:23:41;0.95;;;0.40;;
74108;SDS011;62466;47.566;7.786;2023-03-15T14:26:19;1.13;;;0.50;;
74108;SDS011;62466;47.566;7.786;2023-03-15T14:29:11;1.30;;;0.45;;
74108;SDS011;62466;47.566;7.786;2023-03-15T14:31:39;0.68;;;0.50;;
74108;SDS011;62466;47.566;7.786;2023-03-15T14:37:03;0.40;;;0.32;;
74108;SDS011;62466;47.566;7.786;2023-03-15T14:42:03;0.45;;;0.35;;
74108;SDS011;62466;47.566;7.786;2023-03-15T14:44:29;0.30;;;0.30;;
74108;SDS011;62466;47.566;7.786;2023-03-15T14:46:54;0.68;;;0.38;;
74108;SDS011;62466;47.566;7.786;2023-03-15T14:49:24;0.98;;;0.30;;
74108;SDS011;62466;47.566;7.786;2023-03-15T14:51:52;0.60;;;0.60;;
74108;SDS011;62466;47.566;7.786;2023-03-15T14:54:19;0.47;;;0.35;;
74108;SDS011;62466;47.566;7.786;2023-03-15T14:56:44;0.47;;;0.30;;
74108;SDS011;62466;47.566;7.786;2023-03-15T14:59:10;0.75;;;0.40;;
74108;SDS011;62466;47.566;7.786;2023-03-15T15:01:36;0.45;;;0.40;;
74108;SDS011;62466;47.566;7.786;2023-03-15T15:04:04;0.80;;;0.40;;
74108;SDS011;62466;47.566;7.786;2023-03-15T15:06:30;0.50;;;0.50;;
74108;SDS011;62466;47.566;7.786;2023-03-15T15:09:00;2.13;;;0.68;;
74108;SDS011;62466;47.566;7.786;2023-03-15T15:11:26;1.38;;;0.60;;
74108;SDS011;62466;47.566;7.786;2023-03-15T15:13:52;0.52;;;0.30;;
74108;SDS011;62466;47.566;7.786;2023-03-15T15:16:18;0.50;;;0.50;;
74108;SDS011;62466;47.566;7.786;2023-03-15T15:18:44;1.40;;;0.60;;
74108;SDS011;62466;47.566;7.786;2023-03-15T15:21:14;1.55;;;0.30;;
74108;SDS011;62466;47.566;7.786;2023-03-15T15:23:49;0.32;;;0.32;;
74108;SDS011;62466;47.566;7.786;2023-03-15T15:26:17;0.68;;;0.50;;
74108;SDS011;62466;47.566;7.786;2023-03-15T15:28:44;0.73;;;0.30;;
74108;SDS011;62466;47.566;7.786;2023-03-15T15:31:13;1.13;;;0.43;;
74108;SDS011;62466;47.566;7.786;2023-03-15T15:33:40;1.98;;;0.90;;
74108;SDS011;62466;47.566;7.786;2023-03-15T15:36:10;0.50;;;0.40;;
74108;SDS011;62466;47.566;7.786;2023-03-15T15:38:41;0.25;;;0.25;;
74108;SDS011;62466;47.566;7.786;2023-03-15T15:43:51;2.08;;;0.57;;
74108;SDS011;62466;47.566;7.786;2023-03-15T15:46:17;1.10;;;0.30;;
74108;SDS011;62466;47.566;7.786;2023-03-15T15:48:43;0.50;;;0.50;;
74108;SDS011;62466;47.566;7.786;2023-03-15T15:53:57;0.40;;;0.40;;
74108;SDS011;62466;47.566;7.786;2023-03-15T15:56:27;0.40;;;0.40;;
74108;SDS011;62466;47.566;7.786;2023-03-15T15:58:55;1.20;;;0.70;;
74108;SDS011;62466;47.566;7.786;2023-03-15T16:01:21;0.38;;;0.38;;
74108;SDS011;62466;47.566;7.786;2023-03-15T16:03:47;0.73;;;0.63;;
74108;SDS011;62466;47.566;7.786;2023-03-15T16:06:17;0.93;;;0.60;;
74108;SDS011;62466;47.566;7.786;2023-03-15T16:08:44;0.60;;;0.60;;
74108;SDS011;62466;47.566;7.786;2023-03-15T16:11:10;2.08;;;0.90;;
74108;SDS011;62466;47.566;7.786;2023-03-15T16:13:37;0.60;;;0.60;;
74108;SDS011;62466;47.566;7.786;2023-03-15T16:16:03;0.75;;;0.70;;
74108;SDS011;62466;47.566;7.786;2023-03-15T16:18:28;7.13;;;1.00;;
74108;SDS011;62466;47.566;7.786;2023-03-15T16:20:54;1.83;;;0.60;;
74108;SDS011;62466;47.566;7.786;2023-03-15T16:23:20;0.70;;;0.70;;
74108;SDS011;62466;47.566;7.786;2023-03-15T16:25:48;0.80;;;0.75;;
74108;SDS011;62466;47.566;7.786;2023-03-15T16:28:14;0.98;;;0.93;;
74108;SDS011;62466;47.566;7.786;2023-03-15T16:30:40;0.70;;;0.70;;